sensor_id;sensor_type;location;lat;lon;timestamp;P1;durP1;ratioP1;P2;durP2;ratioP2
47365;SDS011;33105;47.964;7.982;2024-02-14T00:02:47;3.22;;;1.60;;
47365;SDS011;33105;47.964;7.982;2024-02-14T00:05:51;4.63;;;1.70;;
47365;SDS011;33105;47.964;7.982;2024-02-14T00:08:53;4.10;;;1.58;;
47365;SDS011;33105;47.964;7.982;2024-02-14T00:11:54;3.63;;;1.40;;
47365;SDS011;33105;47.964;7.982;2024-02-14T00:14:55;8.00;;;1.80;;
47365;SDS011;33105;47.964;7.982;2024-02-14T00:17:56;2.30;;;1.17;;
47365;SDS011;33105;47.964;7.982;2024-02-14T00:20:58;4.55;;;1.10;;
47365;SDS011;33105;47.964;7.982;2024-02-14T00:28:23;5.65;;;1.40;;
47365;SDS011;33105;47.964;7.982;2024-02-14T00:31:30;6.70;;;1.60;;
47365;SDS011;33105;47.964;7.982;2024-02-14T00:34:34;3.45;;;1.85;;
47365;SDS011;33105;47.964;7.982;2024-02-14T00:37:35;5.57;;;1.70;;
47365;SDS011;33105;47.964;7.982;2024-02-14T00:40:37;4.50;;;1.20;;
47365;SDS011;33105;47.964;7.982;2024-02-14T00:43:38;5.03;;;1.30;;
47365;SDS011;33105;47.964;7.982;2024-02-14T00:46:39;3.70;;;1.20;;
47365;SDS011;33105;47.964;7.982;2024-02-14T00:49:40;5.18;;;1.30;;
47365;SDS011;33105;47.964;7.982;2024-02-14T00:52:41;3.72;;;1.52;;
47365;SDS011;33105;47.964;7.982;2024-02-14T00:55:44;4.22;;;1.52;;
47365;SDS011;33105;47.964;7.982;2024-02-14T01:04:03;7.38;;;1.38;;
47365;SDS011;33105;47.964;7.982;2024-02-14T01:17:08;2.88;;;1.23;;
47365;SDS011;33105;47.964;7.982;2024-02-14T01:20:10;5.20;;;1.67;;
47365;SDS011;33105;47.964;7.982;2024-02-14T01:41:15;6.15;;;1.67;;
47365;SDS011;33105;47.964;7.982;2024-02-14T01:48:54;5.45;;;1.55;;
47365;SDS011;33105;47.964;7.982;2024-02-14T01:51:58;6.95;;;1.67;;
47365;SDS011;33105;47.964;7.982;2024-02-14T01:55:05;3.90;;;1.38;;
47365;SDS011;33105;47.964;7.982;2024-02-14T02:02:59;3.88;;;1.55;;
47365;SDS011;33105;47.964;7.982;2024-02-14T02:06:05;7.60;;;2.00;;
47365;SDS011;33105;47.964;7.982;2024-02-14T02:09:07;5.05;;;1.80;;
47365;SDS011;33105;47.964;7.982;2024-02-14T02:12:14;3.00;;;1.10;;
47365;SDS011;33105;47.964;7.982;2024-02-14T02:20:05;6.25;;;1.52;;
47365;SDS011;33105;47.964;7.982;2024-02-14T02:23:44;7.40;;;1.52;;
47365;SDS011;33105;47.964;7.982;2024-02-14T02:41:20;7.47;;;1.33;;
47365;SDS011;33105;47.964;7.982;2024-02-14T02:49:02;5.15;;;1.30;;
47365;SDS011;33105;47.964;7.982;2024-02-14T03:00:15;5.28;;;1.23;;
47365;SDS011;33105;47.964;7.982;2024-02-14T03:03:17;5.93;;;1.63;;
47365;SDS011;33105;47.964;7.982;2024-02-14T03:11:18;2.45;;;1.25;;
47365;SDS011;33105;47.964;7.982;2024-02-14T03:14:19;4.82;;;1.30;;
47365;SDS011;33105;47.964;7.982;2024-02-14T03:25:33;3.60;;;1.33;;
47365;SDS011;33105;47.964;7.982;2024-02-14T03:28:37;3.88;;;1.70;;
47365;SDS011;33105;47.964;7.982;2024-02-14T03:31:38;4.25;;;1.63;;
47365;SDS011;33105;47.964;7.982;2024-02-14T03:38:35;6.93;;;1.67;;
47365;SDS011;33105;47.964;7.982;2024-02-14T03:41:45;2.22;;;1.15;;
47365;SDS011;33105;47.964;7.982;2024-02-14T03:44:49;6.28;;;1.70;;
47365;SDS011;33105;47.964;7.982;2024-02-14T03:47:50;2.63;;;0.98;;
47365;SDS011;33105;47.964;7.982;2024-02-14T03:55:01;2.83;;;0.93;;
47365;SDS011;33105;47.964;7.982;2024-02-14T03:59:36;8.45;;;1.20;;
47365;SDS011;33105;47.964;7.982;2024-02-14T04:02:39;5.20;;;1.00;;
47365;SDS011;33105;47.964;7.982;2024-02-14T04:05:41;5.32;;;1.00;;
47365;SDS011;33105;47.964;7.982;2024-02-14T04:08:42;3.17;;;1.15;;
47365;SDS011;33105;47.964;7.982;2024-02-14T04:11:43;2.67;;;1.20;;
47365;SDS011;33105;47.964;7.982;2024-02-14T04:14:44;5.25;;;1.33;;
47365;SDS011;33105;47.964;7.982;2024-02-14T04:17:45;7.50;;;1.52;;
47365;SDS011;33105;47.964;7.982;2024-02-14T04:20:46;3.83;;;1.30;;
47365;SDS011;33105;47.964;7.982;2024-02-14T04:23:48;4.65;;;1.67;;
47365;SDS011;33105;47.964;7.982;2024-02-14T04:26:50;4.95;;;1.10;;
47365;SDS011;33105;47.964;7.982;2024-02-14T04:30:00;5.38;;;1.38;;
47365;SDS011;33105;47.964;7.982;2024-02-14T04:34:29;7.03;;;1.02;;
47365;SDS011;33105;47.964;7.982;2024-02-14T04:37:30;6.95;;;1.42;;
47365;SDS011;33105;47.964;7.982;2024-02-14T04:40:32;3.40;;;1.08;;
47365;SDS011;33105;47.964;7.982;2024-02-14T04:43:33;4.03;;;1.20;;
47365;SDS011;33105;47.964;7.982;2024-02-14T04:46:34;3.88;;;1.35;;
47365;SDS011;33105;47.964;7.982;2024-02-14T04:49:36;4.00;;;1.08;;
47365;SDS011;33105;47.964;7.982;2024-02-14T04:52:38;3.30;;;1.27;;
47365;SDS011;33105;47.964;7.982;2024-02-14T04:55:39;7.28;;;1.65;;
47365;SDS011;33105;47.964;7.982;2024-02-14T04:58:41;3.90;;;1.35;;
47365;SDS011;33105;47.964;7.982;2024-02-14T05:01:42;6.65;;;1.40;;
47365;SDS011;33105;47.964;7.982;2024-02-14T05:04:43;1.90;;;1.23;;
47365;SDS011;33105;47.964;7.982;2024-02-14T05:07:44;5.68;;;1.20;;
47365;SDS011;33105;47.964;7.982;2024-02-14T05:10:45;3.83;;;1.33;;
47365;SDS011;33105;47.964;7.982;2024-02-14T05:13:46;6.72;;;1.00;;
47365;SDS011;33105;47.964;7.982;2024-02-14T05:16:48;5.30;;;1.17;;
47365;SDS011;33105;47.964;7.982;2024-02-14T05:19:49;1.98;;;0.90;;
47365;SDS011;33105;47.964;7.982;2024-02-14T05:22:50;4.35;;;1.20;;
47365;SDS011;33105;47.964;7.982;2024-02-14T05:25:51;2.53;;;1.10;;
47365;SDS011;33105;47.964;7.982;2024-02-14T05:28:53;3.08;;;1.25;;
47365;SDS011;33105;47.964;7.982;2024-02-14T05:31:54;6.47;;;1.50;;
47365;SDS011;33105;47.964;7.982;2024-02-14T05:34:56;3.45;;;1.55;;
47365;SDS011;33105;47.964;7.982;2024-02-14T05:37:57;5.30;;;1.67;;
47365;SDS011;33105;47.964;7.982;2024-02-14T05:40:58;4.70;;;1.55;;
47365;SDS011;33105;47.964;7.982;2024-02-14T05:43:59;2.00;;;1.02;;
47365;SDS011;33105;47.964;7.982;2024-02-14T05:47:01;3.03;;;0.98;;
47365;SDS011;33105;47.964;7.982;2024-02-14T05:50:02;12.63;;;2.10;;
47365;SDS011;33105;47.964;7.982;2024-02-14T05:53:04;8.20;;;1.50;;
47365;SDS011;33105;47.964;7.982;2024-02-14T05:56:06;3.97;;;1.35;;
47365;SDS011;33105;47.964;7.982;2024-02-14T05:59:07;6.55;;;2.60;;
47365;SDS011;33105;47.964;7.982;2024-02-14T06:02:08;7.65;;;2.10;;
47365;SDS011;33105;47.964;7.982;2024-02-14T06:05:10;4.30;;;1.75;;
47365;SDS011;33105;47.964;7.982;2024-02-14T06:08:12;4.35;;;1.40;;
47365;SDS011;33105;47.964;7.982;2024-02-14T06:11:13;3.47;;;1.40;;
47365;SDS011;33105;47.964;7.982;2024-02-14T06:14:15;7.95;;;1.83;;
47365;SDS011;33105;47.964;7.982;2024-02-14T06:17:16;4.38;;;1.67;;
47365;SDS011;33105;47.964;7.982;2024-02-14T06:20:17;10.20;;;2.83;;
47365;SDS011;33105;47.964;7.982;2024-02-14T06:23:19;8.80;;;5.60;;
47365;SDS011;33105;47.964;7.982;2024-02-14T06:26:20;11.98;;;5.63;;
47365;SDS011;33105;47.964;7.982;2024-02-14T06:29:21;5.00;;;2.53;;
47365;SDS011;33105;47.964;7.982;2024-02-14T06:32:22;5.40;;;1.90;;
47365;SDS011;33105;47.964;7.982;2024-02-14T06:35:23;3.92;;;1.55;;
47365;SDS011;33105;47.964;7.982;2024-02-14T06:38:24;4.60;;;1.83;;
47365;SDS011;33105;47.964;7.982;2024-02-14T06:41:25;5.68;;;1.88;;
47365;SDS011;33105;47.964;7.982;2024-02-14T06:44:26;1.58;;;1.10;;
47365;SDS011;33105;47.964;7.982;2024-02-14T06:47:28;6.32;;;1.70;;
47365;SDS011;33105;47.964;7.982;2024-02-14T06:50:30;5.93;;;1.48;;
47365;SDS011;33105;47.964;7.982;2024-02-14T06:53:32;6.88;;;1.75;;
47365;SDS011;33105;47.964;7.982;2024-02-14T06:56:33;4.15;;;1.60;;
47365;SDS011;33105;47.964;7.982;2024-02-14T06:59:34;2.92;;;1.25;;
47365;SDS011;33105;47.964;7.982;2024-02-14T07:02:37;12.55;;;1.92;;
47365;SDS011;33105;47.964;7.982;2024-02-14T07:05:38;4.38;;;1.52;;
47365;SDS011;33105;47.964;7.982;2024-02-14T07:08:40;3.75;;;1.63;;
47365;SDS011;33105;47.964;7.982;2024-02-14T07:11:42;5.65;;;1.80;;
47365;SDS011;33105;47.964;7.982;2024-02-14T07:14:43;3.15;;;1.60;;
47365;SDS011;33105;47.964;7.982;2024-02-14T07:17:44;4.53;;;1.80;;
47365;SDS011;33105;47.964;7.982;2024-02-14T07:20:45;5.00;;;1.83;;
47365;SDS011;33105;47.964;7.982;2024-02-14T07:23:46;5.32;;;1.55;;
47365;SDS011;33105;47.964;7.982;2024-02-14T07:26:48;6.28;;;2.13;;
47365;SDS011;33105;47.964;7.982;2024-02-14T07:29:49;5.45;;;1.90;;
47365;SDS011;33105;47.964;7.982;2024-02-14T07:32:50;21.38;;;6.85;;
47365;SDS011;33105;47.964;7.982;2024-02-14T07:35:52;9.25;;;3.05;;
47365;SDS011;33105;47.964;7.982;2024-02-14T07:38:53;10.15;;;3.80;;
47365;SDS011;33105;47.964;7.982;2024-02-14T07:41:54;7.43;;;2.78;;
47365;SDS011;33105;47.964;7.982;2024-02-14T07:44:58;4.63;;;2.17;;
47365;SDS011;33105;47.964;7.982;2024-02-14T07:47:59;7.85;;;2.05;;
47365;SDS011;33105;47.964;7.982;2024-02-14T07:51:00;14.27;;;5.57;;
47365;SDS011;33105;47.964;7.982;2024-02-14T07:54:05;12.80;;;2.35;;
47365;SDS011;33105;47.964;7.982;2024-02-14T07:57:06;3.72;;;1.60;;
47365;SDS011;33105;47.964;7.982;2024-02-14T08:00:08;6.65;;;2.75;;
47365;SDS011;33105;47.964;7.982;2024-02-14T08:03:10;6.95;;;1.70;;
47365;SDS011;33105;47.964;7.982;2024-02-14T08:06:12;6.03;;;2.20;;
47365;SDS011;33105;47.964;7.982;2024-02-14T08:09:14;7.00;;;1.90;;
47365;SDS011;33105;47.964;7.982;2024-02-14T08:12:15;6.40;;;3.05;;
47365;SDS011;33105;47.964;7.982;2024-02-14T08:15:16;14.40;;;4.07;;
47365;SDS011;33105;47.964;7.982;2024-02-14T08:18:17;6.35;;;2.42;;
47365;SDS011;33105;47.964;7.982;2024-02-14T08:21:19;8.05;;;2.65;;
47365;SDS011;33105;47.964;7.982;2024-02-14T08:24:27;29.02;;;16.17;;
47365;SDS011;33105;47.964;7.982;2024-02-14T08:27:30;45.50;;;25.50;;
47365;SDS011;33105;47.964;7.982;2024-02-14T08:30:33;11.48;;;5.35;;
47365;SDS011;33105;47.964;7.982;2024-02-14T08:33:34;8.65;;;3.58;;
47365;SDS011;33105;47.964;7.982;2024-02-14T08:36:36;5.00;;;2.53;;
47365;SDS011;33105;47.964;7.982;2024-02-14T08:39:42;3.17;;;1.80;;
47365;SDS011;33105;47.964;7.982;2024-02-14T08:42:50;4.90;;;1.63;;
47365;SDS011;33105;47.964;7.982;2024-02-14T08:45:52;6.20;;;2.78;;
47365;SDS011;33105;47.964;7.982;2024-02-14T08:48:53;4.35;;;2.28;;
47365;SDS011;33105;47.964;7.982;2024-02-14T08:51:55;5.85;;;2.28;;
47365;SDS011;33105;47.964;7.982;2024-02-14T08:55:01;6.82;;;2.10;;
47365;SDS011;33105;47.964;7.982;2024-02-14T08:58:08;7.40;;;2.90;;
47365;SDS011;33105;47.964;7.982;2024-02-14T09:01:22;7.57;;;2.83;;
47365;SDS011;33105;47.964;7.982;2024-02-14T09:04:23;6.75;;;3.35;;
47365;SDS011;33105;47.964;7.982;2024-02-14T09:07:24;4.13;;;1.95;;
47365;SDS011;33105;47.964;7.982;2024-02-14T09:10:28;5.88;;;2.17;;
47365;SDS011;33105;47.964;7.982;2024-02-14T09:13:30;6.63;;;2.65;;
47365;SDS011;33105;47.964;7.982;2024-02-14T09:16:42;4.85;;;2.88;;
47365;SDS011;33105;47.964;7.982;2024-02-14T09:19:53;6.20;;;2.20;;
47365;SDS011;33105;47.964;7.982;2024-02-14T09:22:56;6.55;;;2.60;;
47365;SDS011;33105;47.964;7.982;2024-02-14T09:25:59;5.20;;;3.08;;
47365;SDS011;33105;47.964;7.982;2024-02-14T09:29:00;7.70;;;2.58;;
47365;SDS011;33105;47.964;7.982;2024-02-14T09:32:02;6.75;;;2.65;;
47365;SDS011;33105;47.964;7.982;2024-02-14T09:35:04;7.32;;;2.30;;
47365;SDS011;33105;47.964;7.982;2024-02-14T09:38:07;5.72;;;3.20;;
47365;SDS011;33105;47.964;7.982;2024-02-14T09:41:15;4.53;;;2.50;;
47365;SDS011;33105;47.964;7.982;2024-02-14T09:44:23;3.95;;;2.22;;
47365;SDS011;33105;47.964;7.982;2024-02-14T09:47:24;5.00;;;1.90;;
47365;SDS011;33105;47.964;7.982;2024-02-14T09:50:30;3.80;;;1.98;;
47365;SDS011;33105;47.964;7.982;2024-02-14T09:53:33;4.35;;;2.03;;
47365;SDS011;33105;47.964;7.982;2024-02-14T09:56:35;5.95;;;2.97;;
47365;SDS011;33105;47.964;7.982;2024-02-14T09:59:36;10.00;;;3.58;;
47365;SDS011;33105;47.964;7.982;2024-02-14T10:02:38;4.43;;;1.98;;
47365;SDS011;33105;47.964;7.982;2024-02-14T10:05:39;4.53;;;2.38;;
47365;SDS011;33105;47.964;7.982;2024-02-14T10:08:40;2.65;;;1.58;;
47365;SDS011;33105;47.964;7.982;2024-02-14T10:11:41;7.40;;;1.40;;
47365;SDS011;33105;47.964;7.982;2024-02-14T10:14:43;8.65;;;1.80;;
47365;SDS011;33105;47.964;7.982;2024-02-14T10:17:44;4.22;;;1.52;;
47365;SDS011;33105;47.964;7.982;2024-02-14T10:20:57;4.40;;;1.67;;
47365;SDS011;33105;47.964;7.982;2024-02-14T10:23:59;4.25;;;1.23;;
47365;SDS011;33105;47.964;7.982;2024-02-14T10:27:01;1.85;;;0.90;;
47365;SDS011;33105;47.964;7.982;2024-02-14T10:30:02;3.38;;;1.35;;
47365;SDS011;33105;47.964;7.982;2024-02-14T10:33:10;3.67;;;1.38;;
47365;SDS011;33105;47.964;7.982;2024-02-14T10:36:12;4.45;;;1.50;;
47365;SDS011;33105;47.964;7.982;2024-02-14T10:39:14;2.88;;;1.35;;
47365;SDS011;33105;47.964;7.982;2024-02-14T10:42:18;3.25;;;1.60;;
47365;SDS011;33105;47.964;7.982;2024-02-14T10:45:19;8.15;;;1.70;;
47365;SDS011;33105;47.964;7.982;2024-02-14T10:48:22;3.22;;;0.73;;
47365;SDS011;33105;47.964;7.982;2024-02-14T10:51:25;1.63;;;0.80;;
47365;SDS011;33105;47.964;7.982;2024-02-14T10:54:32;2.42;;;0.90;;
47365;SDS011;33105;47.964;7.982;2024-02-14T10:57:36;2.17;;;0.60;;
47365;SDS011;33105;47.964;7.982;2024-02-14T11:00:37;0.60;;;0.50;;
47365;SDS011;33105;47.964;7.982;2024-02-14T11:03:39;0.88;;;0.40;;
47365;SDS011;33105;47.964;7.982;2024-02-14T11:06:45;1.17;;;0.30;;
47365;SDS011;33105;47.964;7.982;2024-02-14T11:09:47;1.08;;;0.30;;
47365;SDS011;33105;47.964;7.982;2024-02-14T11:12:48;0.70;;;0.47;;
47365;SDS011;33105;47.964;7.982;2024-02-14T11:15:51;0.50;;;0.50;;
47365;SDS011;33105;47.964;7.982;2024-02-14T11:19:09;0.43;;;0.25;;
47365;SDS011;33105;47.964;7.982;2024-02-14T11:22:11;0.85;;;0.40;;
47365;SDS011;33105;47.964;7.982;2024-02-14T11:25:14;0.93;;;0.70;;
47365;SDS011;33105;47.964;7.982;2024-02-14T11:28:23;0.98;;;0.50;;
47365;SDS011;33105;47.964;7.982;2024-02-14T11:31:31;0.50;;;0.40;;
47365;SDS011;33105;47.964;7.982;2024-02-14T11:34:41;1.02;;;0.52;;
47365;SDS011;33105;47.964;7.982;2024-02-14T11:37:51;0.45;;;0.45;;
47365;SDS011;33105;47.964;7.982;2024-02-14T11:41:02;0.70;;;0.40;;
47365;SDS011;33105;47.964;7.982;2024-02-14T11:47:56;1.42;;;0.38;;
47365;SDS011;33105;47.964;7.982;2024-02-14T11:50:57;0.68;;;0.40;;
47365;SDS011;33105;47.964;7.982;2024-02-14T11:54:00;0.50;;;0.38;;
47365;SDS011;33105;47.964;7.982;2024-02-14T11:57:08;0.73;;;0.60;;
47365;SDS011;33105;47.964;7.982;2024-02-14T12:00:15;0.50;;;0.38;;
47365;SDS011;33105;47.964;7.982;2024-02-14T12:03:28;0.47;;;0.30;;
47365;SDS011;33105;47.964;7.982;2024-02-14T12:06:30;0.55;;;0.40;;
47365;SDS011;33105;47.964;7.982;2024-02-14T12:09:35;0.80;;;0.50;;
47365;SDS011;33105;47.964;7.982;2024-02-14T12:12:53;0.50;;;0.40;;
47365;SDS011;33105;47.964;7.982;2024-02-14T12:15:56;4.97;;;0.70;;
47365;SDS011;33105;47.964;7.982;2024-02-14T12:23:21;0.77;;;0.30;;
47365;SDS011;33105;47.964;7.982;2024-02-14T12:26:42;1.08;;;0.30;;
47365;SDS011;33105;47.964;7.982;2024-02-14T12:29:58;1.83;;;0.32;;
47365;SDS011;33105;47.964;7.982;2024-02-14T12:33:38;0.28;;;0.28;;
47365;SDS011;33105;47.964;7.982;2024-02-14T12:37:50;1.25;;;0.40;;
47365;SDS011;33105;47.964;7.982;2024-02-14T12:42:04;1.63;;;0.38;;
47365;SDS011;33105;47.964;7.982;2024-02-14T12:46:28;0.28;;;0.20;;
47365;SDS011;33105;47.964;7.982;2024-02-14T12:54:39;0.30;;;0.30;;
47365;SDS011;33105;47.964;7.982;2024-02-14T12:58:16;1.20;;;0.65;;
47365;SDS011;33105;47.964;7.982;2024-02-14T13:02:11;0.30;;;0.20;;
47365;SDS011;33105;47.964;7.982;2024-02-14T13:05:30;0.93;;;0.30;;
47365;SDS011;33105;47.964;7.982;2024-02-14T13:08:53;1.67;;;0.32;;
47365;SDS011;33105;47.964;7.982;2024-02-14T13:12:43;0.77;;;0.30;;
47365;SDS011;33105;47.964;7.982;2024-02-14T13:20:49;0.28;;;0.20;;
47365;SDS011;33105;47.964;7.982;2024-02-14T13:27:56;1.13;;;0.38;;
47365;SDS011;33105;47.964;7.982;2024-02-14T13:31:39;0.68;;;0.35;;
47365;SDS011;33105;47.964;7.982;2024-02-14T13:36:04;0.20;;;0.20;;
47365;SDS011;33105;47.964;7.982;2024-02-14T13:43:09;1.38;;;0.30;;
47365;SDS011;33105;47.964;7.982;2024-02-14T13:46:50;0.40;;;0.20;;
47365;SDS011;33105;47.964;7.982;2024-02-14T13:50:53;0.50;;;0.20;;
47365;SDS011;33105;47.964;7.982;2024-02-14T13:54:24;2.70;;;0.47;;
47365;SDS011;33105;47.964;7.982;2024-02-14T13:58:05;0.38;;;0.30;;
47365;SDS011;33105;47.964;7.982;2024-02-14T14:01:50;2.83;;;0.30;;
47365;SDS011;33105;47.964;7.982;2024-02-14T14:09:57;1.83;;;0.30;;
47365;SDS011;33105;47.964;7.982;2024-02-14T14:14:06;1.60;;;0.43;;
47365;SDS011;33105;47.964;7.982;2024-02-14T14:22:14;0.28;;;0.20;;
47365;SDS011;33105;47.964;7.982;2024-02-14T14:35:07;0.57;;;0.20;;
47365;SDS011;33105;47.964;7.982;2024-02-14T14:38:57;2.00;;;0.30;;
47365;SDS011;33105;47.964;7.982;2024-02-14T14:42:46;0.20;;;0.20;;
47365;SDS011;33105;47.964;7.982;2024-02-14T14:46:21;0.20;;;0.20;;
47365;SDS011;33105;47.964;7.982;2024-02-14T14:50:17;0.30;;;0.30;;
47365;SDS011;33105;47.964;7.982;2024-02-14T14:54:11;0.32;;;0.32;;
47365;SDS011;33105;47.964;7.982;2024-02-14T14:57:52;0.80;;;0.60;;
47365;SDS011;33105;47.964;7.982;2024-02-14T15:01:36;7.35;;;0.50;;
47365;SDS011;33105;47.964;7.982;2024-02-14T15:05:09;0.40;;;0.20;;
47365;SDS011;33105;47.964;7.982;2024-02-14T15:08:15;0.57;;;0.47;;
47365;SDS011;33105;47.964;7.982;2024-02-14T15:15:32;1.20;;;0.40;;
47365;SDS011;33105;47.964;7.982;2024-02-14T15:19:34;1.42;;;0.40;;
47365;SDS011;33105;47.964;7.982;2024-02-14T15:22:57;0.68;;;0.30;;
47365;SDS011;33105;47.964;7.982;2024-02-14T15:30:00;0.70;;;0.30;;
47365;SDS011;33105;47.964;7.982;2024-02-14T15:33:27;0.60;;;0.32;;
47365;SDS011;33105;47.964;7.982;2024-02-14T15:36:53;0.73;;;0.30;;
47365;SDS011;33105;47.964;7.982;2024-02-14T15:40:34;1.60;;;0.40;;
47365;SDS011;33105;47.964;7.982;2024-02-14T15:44:47;2.25;;;0.55;;
47365;SDS011;33105;47.964;7.982;2024-02-14T15:48:24;0.57;;;0.20;;
47365;SDS011;33105;47.964;7.982;2024-02-14T15:51:59;1.67;;;0.40;;
47365;SDS011;33105;47.964;7.982;2024-02-14T15:55:14;1.45;;;1.02;;
47365;SDS011;33105;47.964;7.982;2024-02-14T15:58:32;1.70;;;0.80;;
47365;SDS011;33105;47.964;7.982;2024-02-14T16:01:56;5.32;;;0.80;;
47365;SDS011;33105;47.964;7.982;2024-02-14T16:05:43;0.80;;;0.30;;
47365;SDS011;33105;47.964;7.982;2024-02-14T16:09:17;1.13;;;0.40;;
47365;SDS011;33105;47.964;7.982;2024-02-14T16:13:19;1.02;;;0.30;;
47365;SDS011;33105;47.964;7.982;2024-02-14T16:16:54;1.10;;;0.50;;
47365;SDS011;33105;47.964;7.982;2024-02-14T16:20:37;2.55;;;0.52;;
47365;SDS011;33105;47.964;7.982;2024-02-14T16:23:46;1.55;;;0.70;;
47365;SDS011;33105;47.964;7.982;2024-02-14T16:27:12;0.73;;;0.45;;
47365;SDS011;33105;47.964;7.982;2024-02-14T16:30:32;1.40;;;0.50;;
47365;SDS011;33105;47.964;7.982;2024-02-14T16:33:46;1.02;;;0.70;;
47365;SDS011;33105;47.964;7.982;2024-02-14T16:37:07;2.20;;;1.00;;
47365;SDS011;33105;47.964;7.982;2024-02-14T16:40:27;1.42;;;0.80;;
47365;SDS011;33105;47.964;7.982;2024-02-14T16:43:43;3.28;;;1.30;;
47365;SDS011;33105;47.964;7.982;2024-02-14T16:47:09;2.67;;;1.13;;
47365;SDS011;33105;47.964;7.982;2024-02-14T16:50:19;2.88;;;1.20;;
47365;SDS011;33105;47.964;7.982;2024-02-14T16:53:22;5.25;;;1.30;;
47365;SDS011;33105;47.964;7.982;2024-02-14T16:56:27;3.28;;;1.40;;
47365;SDS011;33105;47.964;7.982;2024-02-14T16:59:38;2.95;;;1.25;;
47365;SDS011;33105;47.964;7.982;2024-02-14T17:02:47;3.72;;;1.00;;
47365;SDS011;33105;47.964;7.982;2024-02-14T17:05:49;3.95;;;1.17;;
47365;SDS011;33105;47.964;7.982;2024-02-14T17:08:51;4.07;;;0.68;;
47365;SDS011;33105;47.964;7.982;2024-02-14T17:11:52;2.88;;;1.00;;
47365;SDS011;33105;47.964;7.982;2024-02-14T17:14:57;2.88;;;1.25;;
47365;SDS011;33105;47.964;7.982;2024-02-14T17:18:11;2.13;;;1.30;;
47365;SDS011;33105;47.964;7.982;2024-02-14T17:21:13;3.85;;;1.27;;
47365;SDS011;33105;47.964;7.982;2024-02-14T17:24:14;3.60;;;1.42;;
47365;SDS011;33105;47.964;7.982;2024-02-14T17:27:15;3.22;;;1.00;;
47365;SDS011;33105;47.964;7.982;2024-02-14T17:30:16;1.98;;;1.05;;
47365;SDS011;33105;47.964;7.982;2024-02-14T17:33:20;5.38;;;1.77;;
47365;SDS011;33105;47.964;7.982;2024-02-14T17:36:21;3.15;;;1.50;;
47365;SDS011;33105;47.964;7.982;2024-02-14T17:39:26;4.13;;;1.02;;
47365;SDS011;33105;47.964;7.982;2024-02-14T17:42:33;5.28;;;2.30;;
47365;SDS011;33105;47.964;7.982;2024-02-14T17:45:35;5.20;;;2.03;;
47365;SDS011;33105;47.964;7.982;2024-02-14T17:48:37;7.40;;;3.53;;
47365;SDS011;33105;47.964;7.982;2024-02-14T17:51:38;5.00;;;2.90;;
47365;SDS011;33105;47.964;7.982;2024-02-14T17:54:44;5.53;;;2.17;;
47365;SDS011;33105;47.964;7.982;2024-02-14T17:57:45;8.63;;;2.17;;
47365;SDS011;33105;47.964;7.982;2024-02-14T18:00:47;3.58;;;1.90;;
47365;SDS011;33105;47.964;7.982;2024-02-14T18:03:48;7.38;;;2.58;;
47365;SDS011;33105;47.964;7.982;2024-02-14T18:06:50;3.88;;;1.67;;
47365;SDS011;33105;47.964;7.982;2024-02-14T18:09:52;4.00;;;1.30;;
47365;SDS011;33105;47.964;7.982;2024-02-14T18:12:53;2.17;;;1.27;;
47365;SDS011;33105;47.964;7.982;2024-02-14T18:15:54;4.20;;;1.35;;
47365;SDS011;33105;47.964;7.982;2024-02-14T18:18:55;5.72;;;2.00;;
47365;SDS011;33105;47.964;7.982;2024-02-14T18:21:57;6.53;;;2.65;;
47365;SDS011;33105;47.964;7.982;2024-02-14T18:24:58;7.88;;;2.35;;
47365;SDS011;33105;47.964;7.982;2024-02-14T18:27:59;5.65;;;2.60;;
47365;SDS011;33105;47.964;7.982;2024-02-14T18:31:02;7.70;;;2.47;;
47365;SDS011;33105;47.964;7.982;2024-02-14T18:34:04;8.48;;;2.50;;
47365;SDS011;33105;47.964;7.982;2024-02-14T18:37:07;6.32;;;1.83;;
47365;SDS011;33105;47.964;7.982;2024-02-14T18:40:09;4.57;;;1.95;;
47365;SDS011;33105;47.964;7.982;2024-02-14T18:43:11;7.28;;;2.10;;
47365;SDS011;33105;47.964;7.982;2024-02-14T18:46:13;4.80;;;1.90;;
47365;SDS011;33105;47.964;7.982;2024-02-14T18:49:14;8.70;;;1.70;;
47365;SDS011;33105;47.964;7.982;2024-02-14T18:52:15;5.70;;;1.60;;
47365;SDS011;33105;47.964;7.982;2024-02-14T18:55:16;5.65;;;1.58;;
47365;SDS011;33105;47.964;7.982;2024-02-14T18:58:20;3.08;;;1.40;;
47365;SDS011;33105;47.964;7.982;2024-02-14T19:01:22;7.45;;;3.08;;
47365;SDS011;33105;47.964;7.982;2024-02-14T19:04:25;7.00;;;1.80;;
47365;SDS011;33105;47.964;7.982;2024-02-14T19:07:27;4.28;;;1.75;;
47365;SDS011;33105;47.964;7.982;2024-02-14T19:10:28;5.47;;;1.50;;
47365;SDS011;33105;47.964;7.982;2024-02-14T19:13:30;3.50;;;1.30;;
47365;SDS011;33105;47.964;7.982;2024-02-14T19:16:32;5.15;;;1.77;;
47365;SDS011;33105;47.964;7.982;2024-02-14T19:19:33;4.47;;;1.40;;
47365;SDS011;33105;47.964;7.982;2024-02-14T19:22:36;4.70;;;2.30;;
47365;SDS011;33105;47.964;7.982;2024-02-14T19:25:37;5.75;;;1.70;;
47365;SDS011;33105;47.964;7.982;2024-02-14T19:28:38;3.17;;;1.70;;
47365;SDS011;33105;47.964;7.982;2024-02-14T19:31:40;6.47;;;2.35;;
47365;SDS011;33105;47.964;7.982;2024-02-14T19:34:41;6.03;;;2.03;;
47365;SDS011;33105;47.964;7.982;2024-02-14T19:37:42;5.40;;;1.98;;
47365;SDS011;33105;47.964;7.982;2024-02-14T19:40:44;4.75;;;1.42;;
47365;SDS011;33105;47.964;7.982;2024-02-14T19:43:45;2.70;;;1.17;;
47365;SDS011;33105;47.964;7.982;2024-02-14T19:46:46;2.78;;;0.90;;
47365;SDS011;33105;47.964;7.982;2024-02-14T19:49:47;4.00;;;1.15;;
47365;SDS011;33105;47.964;7.982;2024-02-14T19:52:48;3.53;;;1.70;;
47365;SDS011;33105;47.964;7.982;2024-02-14T19:55:50;4.25;;;1.17;;
47365;SDS011;33105;47.964;7.982;2024-02-14T19:58:51;5.30;;;2.33;;
47365;SDS011;33105;47.964;7.982;2024-02-14T20:01:52;8.55;;;2.10;;
47365;SDS011;33105;47.964;7.982;2024-02-14T20:04:53;11.05;;;4.40;;
47365;SDS011;33105;47.964;7.982;2024-02-14T20:07:55;9.07;;;3.42;;
47365;SDS011;33105;47.964;7.982;2024-02-14T20:10:56;9.18;;;3.97;;
47365;SDS011;33105;47.964;7.982;2024-02-14T20:13:58;9.32;;;3.83;;
47365;SDS011;33105;47.964;7.982;2024-02-14T20:16:59;7.68;;;2.30;;
47365;SDS011;33105;47.964;7.982;2024-02-14T20:20:01;5.88;;;2.33;;
47365;SDS011;33105;47.964;7.982;2024-02-14T20:23:04;7.85;;;1.73;;
47365;SDS011;33105;47.964;7.982;2024-02-14T20:26:06;3.42;;;1.50;;
47365;SDS011;33105;47.964;7.982;2024-02-14T20:29:11;4.57;;;1.35;;
47365;SDS011;33105;47.964;7.982;2024-02-14T20:32:12;5.97;;;2.30;;
47365;SDS011;33105;47.964;7.982;2024-02-14T20:35:14;5.88;;;2.10;;
47365;SDS011;33105;47.964;7.982;2024-02-14T20:38:15;6.07;;;2.20;;
47365;SDS011;33105;47.964;7.982;2024-02-14T20:41:16;7.05;;;3.25;;
47365;SDS011;33105;47.964;7.982;2024-02-14T20:44:17;7.43;;;3.70;;
47365;SDS011;33105;47.964;7.982;2024-02-14T20:47:18;7.25;;;4.90;;
47365;SDS011;33105;47.964;7.982;2024-02-14T20:50:20;9.75;;;4.60;;
47365;SDS011;33105;47.964;7.982;2024-02-14T20:53:21;8.80;;;3.33;;
47365;SDS011;33105;47.964;7.982;2024-02-14T20:56:22;5.05;;;2.30;;
47365;SDS011;33105;47.964;7.982;2024-02-14T20:59:24;6.43;;;1.85;;
47365;SDS011;33105;47.964;7.982;2024-02-14T21:02:25;5.05;;;1.60;;
47365;SDS011;33105;47.964;7.982;2024-02-14T21:05:26;5.88;;;1.67;;
47365;SDS011;33105;47.964;7.982;2024-02-14T21:08:27;10.35;;;2.88;;
47365;SDS011;33105;47.964;7.982;2024-02-14T21:11:28;7.90;;;3.63;;
47365;SDS011;33105;47.964;7.982;2024-02-14T21:14:30;5.85;;;2.40;;
47365;SDS011;33105;47.964;7.982;2024-02-14T21:17:33;5.35;;;2.40;;
47365;SDS011;33105;47.964;7.982;2024-02-14T21:20:34;6.50;;;2.63;;
47365;SDS011;33105;47.964;7.982;2024-02-14T21:23:35;6.13;;;4.03;;
47365;SDS011;33105;47.964;7.982;2024-02-14T21:26:37;6.57;;;2.88;;
47365;SDS011;33105;47.964;7.982;2024-02-14T21:29:38;5.10;;;2.30;;
47365;SDS011;33105;47.964;7.982;2024-02-14T21:32:39;4.70;;;2.10;;